Terminal Aerodrome Forecast
Issued by NWS

Home | Current Version | Previous Version | Text Only | Print | Product List | Glossary On
Versions: 1 2 3 4 5 6 7 8 9 10 11 12 13 14 15
714
FTPA31 PHFO 240535
TAFHOG
TAF
PHOG 240535Z 2406/2506 06016KT P6SM SCT035 SCT060
     FM240800 06008KT P6SM FEW030 SCT060
     FM242000 04016G24KT P6SM SCT040 SCT060
     FM250500 05009KT P6SM FEW030 SCT060
      AMD LTD TO VIS AND WIND 2409/2416=

USA.gov is the U.S. government's official web portal to all federal, state and local government web resources and services.